Time;durP1;ratioP1;P1;durP2;ratioP2;P2;SDS_P1;SDS_P2;PMS_P1;PMS_P2;Temp;Humidity;BMP_temperature;BMP_pressure;BME280_temperature;BME280_humidity;BME280_pressure;Samples;Min_cycle;Max_cycle;Signal;HPM_P1;HPM_P2
2023/12/30 00:00:20;;;;;;;13.10;9.70;;;;;;;18.05;37.42;101116.55;103090;1283;61383;-77
2023/12/30 00:02:47;;;;;;;13.40;9.90;;;;;;;18.05;37.41;101116.02;103233;1287;61448;-77
2023/12/30 00:05:12;;;;;;;13.80;9.80;;;;;;;18.05;37.34;101112.12;103219;1282;59959;-77
2023/12/30 00:07:38;;;;;;;13.80;10.00;;;;;;;18.05;37.34;101109.80;103239;1286;61780;-77
2023/12/30 00:10:04;;;;;;;13.10;9.40;;;;;;;18.05;37.47;101111.95;103362;1284;61458;-77
2023/12/30 00:12:30;;;;;;;13.20;9.60;;;;;;;18.05;37.28;101111.23;103243;1282;61405;-77
2023/12/30 00:14:56;;;;;;;12.20;9.20;;;;;;;18.05;37.34;101104.83;103325;1282;61376;-77
2023/12/30 00:17:22;;;;;;;12.20;9.10;;;;;;;18.04;37.23;101106.63;103236;1282;61360;-77
2023/12/30 00:19:47;;;;;;;12.90;9.20;;;;;;;18.04;37.19;101105.59;103208;1282;61387;-77
2023/12/30 00:22:13;;;;;;;12.00;8.80;;;;;;;18.04;37.35;101116.97;103367;1285;61395;-77
2023/12/30 00:24:41;;;;;;;13.90;9.90;;;;;;;18.04;37.36;101117.52;103215;1282;59990;-77
2023/12/30 00:27:07;;;;;;;13.70;9.20;;;;;;;18.04;37.36;101118.58;103218;1282;61282;-77
2023/12/30 00:29:37;;;;;;;12.20;8.80;;;;;;;18.03;37.31;101119.48;103351;1286;62189;-77
2023/12/30 00:32:03;;;;;;;12.70;9.30;;;;;;;18.03;37.35;101118.61;103226;1282;75752;-77
2023/12/30 00:34:35;;;;;;;12.40;9.20;;;;;;;18.03;37.39;101124.31;103321;1282;61257;-77
2023/12/30 00:37:00;;;;;;;11.90;9.10;;;;;;;18.03;37.31;101123.44;103399;1282;61267;-77
2023/12/30 00:39:26;;;;;;;11.80;9.00;;;;;;;18.02;37.38;101118.84;103227;1283;61368;-77
2023/12/30 00:41:52;;;;;;;13.90;9.40;;;;;;;18.02;37.35;101119.20;103308;1286;61415;-77
2023/12/30 00:44:17;;;;;;;12.30;9.00;;;;;;;18.02;37.36;101115.64;103093;1282;62189;-77
2023/12/30 00:46:43;;;;;;;13.70;9.80;;;;;;;18.02;37.32;101117.42;103364;1282;61379;-77
2023/12/30 00:49:09;;;;;;;13.00;8.90;;;;;;;18.02;37.39;101119.40;103635;1282;62164;-77
2023/12/30 00:51:35;;;;;;;12.40;8.80;;;;;;;18.02;37.32;101121.52;103238;1286;73774;-77
2023/12/30 00:54:02;;;;;;;12.70;9.50;;;;;;;18.02;37.36;101115.14;103299;1282;61252;-77
2023/12/30 00:56:27;;;;;;;12.90;9.50;;;;;;;18.02;37.30;101117.42;103255;1286;61465;-77
2023/12/30 00:58:53;;;;;;;11.90;8.50;;;;;;;18.02;37.32;101117.79;103336;1281;61376;-77
2023/12/30 01:01:19;;;;;;;14.40;9.30;;;;;;;18.01;37.28;101115.48;103350;1281;62217;-77
2023/12/30 01:03:44;;;;;;;13.80;9.50;;;;;;;18.01;37.38;101115.86;103286;1283;61363;-77
2023/12/30 01:06:10;;;;;;;12.10;8.60;;;;;;;18.01;37.36;101113.02;103383;1282;62138;-77
2023/12/30 01:08:35;;;;;;;13.50;9.00;;;;;;;18.01;37.33;101106.45;103052;1283;59575;-77
2023/12/30 01:11:01;;;;;;;12.80;8.70;;;;;;;18.01;37.23;101105.19;103416;1283;60211;-77
2023/12/30 01:13:27;;;;;;;12.50;9.00;;;;;;;18.00;37.34;101108.61;103453;1283;61263;-77
2023/12/30 01:15:52;;;;;;;17.50;8.90;;;;;;;18.00;37.30;101110.05;103320;1286;61385;-77
2023/12/30 01:18:18;;;;;;;11.60;9.00;;;;;;;18.00;37.37;101103.64;103301;1285;61359;-77
2023/12/30 01:20:44;;;;;;;12.60;8.90;;;;;;;18.00;37.30;101101.14;103377;1281;61422;-77
2023/12/30 01:23:09;;;;;;;11.80;9.00;;;;;;;18.00;37.36;101100.27;103040;1282;61349;-77
2023/12/30 01:25:37;;;;;;;12.20;8.80;;;;;;;18.00;37.27;101095.11;103344;1283;59363;-77
2023/12/30 01:28:05;;;;;;;11.50;8.60;;;;;;;17.99;37.31;101094.27;103303;1285;74506;-77
2023/12/30 01:30:30;;;;;;;11.70;8.50;;;;;;;17.99;37.36;101091.60;103330;1281;61231;-77
2023/12/30 01:32:56;;;;;;;12.00;8.10;;;;;;;17.99;37.46;101085.50;103340;1283;60013;-77
2023/12/30 01:35:22;;;;;;;11.80;8.10;;;;;;;17.99;37.33;101082.88;103099;1282;62353;-77
2023/12/30 01:37:47;;;;;;;11.90;8.10;;;;;;;17.99;37.27;101085.55;103244;1283;62275;-77
2023/12/30 01:40:14;;;;;;;11.20;8.00;;;;;;;17.98;37.24;101080.23;103215;1281;59303;-77
2023/12/30 01:42:40;;;;;;;12.50;8.50;;;;;;;17.99;37.25;101078.98;103213;1283;61279;-77
2023/12/30 01:45:06;;;;;;;11.90;8.30;;;;;;;17.98;37.29;101079.71;103392;1283;62286;-77
2023/12/30 01:47:32;;;;;;;11.30;8.50;;;;;;;17.98;37.34;101080.41;103169;1283;72407;-77
2023/12/30 01:49:58;;;;;;;12.90;8.70;;;;;;;17.98;37.14;101076.70;103262;1282;60072;-77
2023/12/30 01:52:23;;;;;;;11.50;8.20;;;;;;;17.98;37.30;101073.86;103238;1284;61458;-77
2023/12/30 01:54:49;;;;;;;12.90;8.40;;;;;;;17.97;37.27;101070.67;103302;1285;61407;-77
2023/12/30 01:57:15;;;;;;;13.00;8.40;;;;;;;17.97;37.24;101071.93;103201;1282;59319;-77
2023/12/30 01:59:41;;;;;;;10.50;7.90;;;;;;;17.97;37.32;101071.58;103675;1282;61471;-77
2023/12/30 02:02:07;;;;;;;10.20;8.00;;;;;;;17.97;37.31;101068.73;103324;1283;74346;-77
2023/12/30 02:04:32;;;;;;;12.00;8.20;;;;;;;17.97;37.32;101067.66;103312;1283;61338;-77
2023/12/30 02:06:58;;;;;;;11.20;8.10;;;;;;;17.96;37.29;101064.67;103296;1282;62226;-77
2023/12/30 02:09:24;;;;;;;9.90;7.50;;;;;;;17.96;37.26;101067.86;103279;1283;60531;-77
2023/12/30 02:11:49;;;;;;;11.50;7.80;;;;;;;17.97;37.23;101066.98;103265;1283;61276;-77
2023/12/30 02:14:29;;;;;;;12.30;8.10;;;;;;;17.97;37.27;101070.89;103249;1286;61455;-77
2023/12/30 02:16:56;;;;;;;12.50;7.60;;;;;;;17.96;37.23;101071.80;103308;1282;61356;-77
2023/12/30 02:19:22;;;;;;;11.00;8.50;;;;;;;17.96;37.30;101067.37;103262;1286;61265;-77
2023/12/30 02:21:48;;;;;;;12.10;8.40;;;;;;;17.96;37.34;101062.55;103189;1286;62312;-77
2023/12/30 02:24:13;;;;;;;11.60;8.70;;;;;;;17.95;37.29;101058.86;103223;1283;61363;-77
2023/12/30 02:26:39;;;;;;;10.40;7.50;;;;;;;17.95;37.31;101054.94;103061;1282;61532;-77
2023/12/30 02:29:06;;;;;;;11.90;8.00;;;;;;;17.95;37.21;101059.75;103296;1282;60172;-77
2023/12/30 02:31:31;;;;;;;10.70;7.60;;;;;;;17.96;37.26;101056.34;103263;1282;61270;-77
2023/12/30 02:33:57;;;;;;;9.90;7.40;;;;;;;17.95;37.33;101053.88;103271;1283;61442;-77
2023/12/30 02:36:23;;;;;;;11.10;7.90;;;;;;;17.95;37.31;101052.99;103348;1282;75394;-77
2023/12/30 02:38:48;;;;;;;10.60;7.40;;;;;;;17.94;37.25;101056.03;103356;1282;61312;-77
2023/12/30 02:41:14;;;;;;;12.20;7.90;;;;;;;17.95;37.18;101053.00;103276;1282;61472;-77
2023/12/30 02:43:55;;;;;;;12.40;8.00;;;;;;;17.94;37.30;101053.91;103260;1281;61350;-77
2023/12/30 02:46:20;;;;;;;10.30;7.60;;;;;;;17.95;37.27;101057.99;103346;1282;74410;-77
2023/12/30 02:48:46;;;;;;;11.90;7.80;;;;;;;17.94;37.35;101060.33;103468;1283;61390;-77
2023/12/30 02:51:16;;;;;;;11.30;8.20;;;;;;;17.94;37.24;101063.91;103365;1285;62134;-77
2023/12/30 02:53:41;;;;;;;9.60;7.20;;;;;;;17.93;37.28;101058.41;103314;1282;72630;-77
2023/12/30 02:56:17;;;;;;;11.70;7.90;;;;;;;17.93;37.32;101061.60;103304;1282;61465;-77
2023/12/30 02:58:42;;;;;;;10.70;7.50;;;;;;;17.93;37.26;101058.21;103226;1282;61282;-77
2023/12/30 03:01:08;;;;;;;9.90;7.30;;;;;;;17.93;37.40;101057.51;103195;1283;62161;-77
2023/12/30 03:03:33;;;;;;;11.60;7.50;;;;;;;17.93;37.34;101056.46;103241;1282;60082;-77
2023/12/30 03:06:00;;;;;;;10.80;7.40;;;;;;;17.93;37.27;101053.80;103326;1282;61371;-78
2023/12/30 03:08:25;;;;;;;11.00;7.50;;;;;;;17.93;37.28;101056.09;103497;1282;61476;-77
2023/12/30 03:10:51;;;;;;;11.10;7.80;;;;;;;17.92;37.22;101054.15;103392;1281;60016;-77
2023/12/30 03:13:17;;;;;;;10.20;7.50;;;;;;;17.93;37.32;101060.94;103222;1281;62208;-77
2023/12/30 03:15:42;;;;;;;11.10;7.60;;;;;;;17.92;37.32;101064.48;103241;1282;61386;-77
2023/12/30 03:18:08;;;;;;;9.90;7.00;;;;;;;17.92;37.26;101064.86;103587;1282;60003;-77
2023/12/30 03:20:33;;;;;;;11.20;7.40;;;;;;;17.92;37.27;101061.49;103195;1283;61364;-77
2023/12/30 03:22:59;;;;;;;11.30;7.20;;;;;;;17.91;37.29;101062.05;103395;1283;61422;-77
2023/12/30 03:25:24;;;;;;;10.70;7.60;;;;;;;17.92;37.29;101062.04;103653;1282;61711;-78
2023/12/30 03:27:50;;;;;;;10.50;7.20;;;;;;;17.92;37.27;101065.61;103993;1281;61376;-78
2023/12/30 03:30:16;;;;;;;10.80;7.50;;;;;;;17.91;37.28;101067.05;104155;1284;61343;-78
2023/12/30 03:32:42;;;;;;;10.20;7.30;;;;;;;17.91;37.31;101068.30;103526;1285;61352;-78
2023/12/30 03:35:08;;;;;;;10.40;7.20;;;;;;;17.91;37.18;101071.16;103665;1282;61368;-78
2023/12/30 03:37:34;;;;;;;11.50;7.10;;;;;;;17.91;37.24;101072.58;103631;1282;60025;-77
2023/12/30 03:39:59;;;;;;;9.80;7.20;;;;;;;17.91;37.33;101072.73;103527;1282;61402;-77
2023/12/30 03:42:27;;;;;;;10.70;7.30;;;;;;;17.90;37.24;101071.88;103426;1284;61269;-77
2023/12/30 03:44:52;;;;;;;9.80;6.70;;;;;;;17.90;37.25;101073.69;103261;1282;62176;-77
2023/12/30 03:47:18;;;;;;;9.70;7.10;;;;;;;17.90;37.28;101071.17;103497;1282;61417;-77
2023/12/30 03:49:43;;;;;;;9.80;6.50;;;;;;;17.90;37.23;101070.31;103478;1284;62255;-77
2023/12/30 03:52:09;;;;;;;10.00;7.10;;;;;;;17.90;37.29;101070.30;103276;1281;62263;-77
2023/12/30 03:54:35;;;;;;;9.50;7.10;;;;;;;17.90;37.23;101076.38;103336;1282;61389;-77
2023/12/30 03:57:00;;;;;;;8.80;6.60;;;;;;;17.89;37.31;101080.31;103288;1282;61308;-77
2023/12/30 03:59:26;;;;;;;10.60;7.00;;;;;;;17.90;37.32;101083.69;103409;1283;61382;-77
2023/12/30 04:01:52;;;;;;;9.20;7.00;;;;;;;17.89;37.23;101085.65;103421;1281;61134;-77
2023/12/30 04:04:18;;;;;;;9.40;7.00;;;;;;;17.89;37.32;101087.45;103773;1282;61417;-77
2023/12/30 04:06:43;;;;;;;9.30;7.00;;;;;;;17.89;37.27;101088.17;103416;1282;61286;-77
2023/12/30 04:09:09;;;;;;;10.60;6.90;;;;;;;17.88;37.36;101085.88;103532;1282;61303;-77
2023/12/30 04:11:34;;;;;;;9.50;7.20;;;;;;;17.88;37.15;101087.14;103297;1281;61339;-77
2023/12/30 04:14:01;;;;;;;10.10;6.90;;;;;;;17.88;37.25;101085.88;103441;1282;61370;-77
2023/12/30 04:16:27;;;;;;;9.80;6.90;;;;;;;17.88;37.21;101091.21;103299;1283;62216;-77
2023/12/30 04:18:52;;;;;;;9.70;6.90;;;;;;;17.88;37.24;101092.66;103438;1282;61242;-77
2023/12/30 04:21:18;;;;;;;11.20;6.70;;;;;;;17.88;37.11;101091.42;103481;1282;60165;-77
2023/12/30 04:23:44;;;;;;;9.30;6.30;;;;;;;17.88;37.28;101097.30;103221;1280;61389;-77
2023/12/30 04:26:09;;;;;;;10.40;6.70;;;;;;;17.88;37.23;101097.32;103229;1287;61334;-77
2023/12/30 04:28:35;;;;;;;10.20;7.00;;;;;;;17.88;37.15;101099.09;103471;1281;60019;-77
2023/12/30 04:31:00;;;;;;;9.60;6.50;;;;;;;17.87;37.22;101094.31;103604;1282;61337;-77
2023/12/30 04:33:26;;;;;;;10.10;6.70;;;;;;;17.87;37.23;101096.09;103460;1281;62284;-77
2023/12/30 04:35:51;;;;;;;10.20;6.50;;;;;;;17.87;37.15;101098.59;103475;1282;60141;-77
2023/12/30 04:38:18;;;;;;;8.70;6.30;;;;;;;17.87;37.12;101094.50;103485;1281;62128;-77
2023/12/30 04:40:44;;;;;;;8.80;6.30;;;;;;;17.86;37.15;101089.73;103281;1281;74548;-77
2023/12/30 04:43:10;;;;;;;10.20;6.80;;;;;;;17.86;37.22;101087.40;103488;1281;61394;-77
2023/12/30 04:45:36;;;;;;;8.90;6.50;;;;;;;17.86;37.11;101084.24;103444;1281;61388;-77
2023/12/30 04:48:03;;;;;;;10.00;6.50;;;;;;;17.86;37.20;101088.48;103437;1281;62082;-77
2023/12/30 04:50:28;;;;;;;8.90;6.60;;;;;;;17.86;37.22;101084.05;103151;1284;61369;-77
2023/12/30 04:52:54;;;;;;;8.90;6.50;;;;;;;17.85;37.27;101084.08;103162;1285;61308;-77
2023/12/30 04:55:19;;;;;;;9.00;6.10;;;;;;;17.85;37.06;101081.05;103100;1286;61384;-77
2023/12/30 04:57:47;;;;;;;9.60;6.30;;;;;;;17.85;37.16;101081.95;103171;1283;61497;-77
2023/12/30 05:00:15;;;;;;;9.70;6.40;;;;;;;17.85;37.25;101079.66;103078;1288;73559;-77
2023/12/30 05:02:41;;;;;;;9.60;6.90;;;;;;;17.85;37.23;101081.42;103019;1291;74529;-77
2023/12/30 05:05:08;;;;;;;9.30;6.00;;;;;;;17.85;37.21;101083.23;103376;1283;61396;-78
2023/12/30 05:07:33;;;;;;;9.10;6.70;;;;;;;17.85;37.14;101085.71;103650;1283;60053;-77
2023/12/30 05:09:59;;;;;;;9.30;6.30;;;;;;;17.84;37.25;101086.63;103120;1284;62158;-77
2023/12/30 05:12:25;;;;;;;9.60;6.70;;;;;;;17.85;37.22;101084.86;103483;1288;60110;-78
2023/12/30 05:14:51;;;;;;;11.60;7.10;;;;;;;17.84;37.25;101087.34;103247;1283;61222;-77
2023/12/30 05:17:18;;;;;;;8.50;6.60;;;;;;;17.84;37.24;101089.83;103134;1283;62415;-77
2023/12/30 05:19:44;;;;;;;9.60;6.20;;;;;;;17.84;37.25;101084.52;103164;1283;61244;-77
2023/12/30 05:22:10;;;;;;;8.10;6.20;;;;;;;17.84;37.23;101083.27;103197;1283;61393;-77
2023/12/30 05:24:36;;;;;;;9.90;6.60;;;;;;;17.83;37.20;101081.88;103955;1283;62443;-78
2023/12/30 05:27:02;;;;;;;9.40;6.20;;;;;;;17.83;37.13;101079.02;103854;1283;61318;-78
2023/12/30 05:29:28;;;;;;;8.80;6.30;;;;;;;17.83;37.19;101080.84;104546;1281;60070;-78
2023/12/30 05:31:53;;;;;;;8.90;6.70;;;;;;;17.83;37.15;101083.14;104265;1282;61302;-78
2023/12/30 05:34:19;;;;;;;8.50;6.00;;;;;;;17.83;37.28;101083.67;104207;1282;62268;-78
2023/12/30 05:36:45;;;;;;;9.50;6.40;;;;;;;17.83;37.30;101087.41;104387;1282;61387;-78
2023/12/30 05:39:13;;;;;;;8.60;6.60;;;;;;;17.83;37.20;101089.20;103886;1281;61362;-77
2023/12/30 05:41:39;;;;;;;9.70;6.10;;;;;;;17.83;37.26;101087.41;103274;1281;61139;-77
2023/12/30 05:44:05;;;;;;;11.40;6.80;;;;;;;17.83;37.30;101083.17;103476;1281;61385;-77
2023/12/30 05:46:31;;;;;;;8.50;6.10;;;;;;;17.83;37.30;101083.52;103294;1285;61395;-77
2023/12/30 05:48:57;;;;;;;9.20;5.90;;;;;;;17.82;37.32;101082.81;103287;1281;59314;-77
2023/12/30 05:51:23;;;;;;;10.30;6.60;;;;;;;17.82;37.24;101084.95;103473;1281;61332;-77
2023/12/30 05:53:48;;;;;;;9.60;6.30;;;;;;;17.82;37.07;101088.18;103439;1281;72548;-77
2023/12/30 05:56:24;;;;;;;11.00;6.10;;;;;;;17.82;37.29;101088.19;103308;1281;61360;-77
2023/12/30 05:58:51;;;;;;;8.60;6.10;;;;;;;17.82;37.18;101092.64;103166;1282;61267;-77
2023/12/30 06:01:17;;;;;;;10.80;6.70;;;;;;;17.81;37.29;101090.54;103313;1280;62211;-77
2023/12/30 06:03:44;;;;;;;8.30;5.50;;;;;;;17.81;37.30;101093.73;103451;1282;61478;-77
2023/12/30 06:06:09;;;;;;;8.50;6.20;;;;;;;17.81;37.26;101090.53;103259;1285;61389;-77
2023/12/30 06:08:35;;;;;;;8.70;6.40;;;;;;;17.81;37.23;101092.84;103247;1282;62149;-77
2023/12/30 06:11:02;;;;;;;8.60;5.90;;;;;;;17.81;37.33;101096.06;103469;1281;62288;-77
2023/12/30 06:13:27;;;;;;;10.30;6.40;;;;;;;17.81;37.36;101095.03;103488;1284;59366;-77
2023/12/30 06:15:56;;;;;;;8.50;6.20;;;;;;;17.80;37.21;101096.64;103279;1281;61491;-77
2023/12/30 06:18:26;;;;;;;9.10;6.00;;;;;;;17.80;37.22;101097.90;103741;1281;61353;-77
2023/12/30 06:20:51;;;;;;;9.10;6.00;;;;;;;17.80;37.21;101101.61;103449;1281;61948;-77
2023/12/30 06:23:17;;;;;;;9.70;6.10;;;;;;;17.80;37.30;101101.99;103457;1281;61391;-77
2023/12/30 06:25:43;;;;;;;7.70;5.70;;;;;;;17.80;37.25;101101.65;103437;1281;62783;-77
2023/12/30 06:28:08;;;;;;;8.60;6.40;;;;;;;17.80;37.34;101105.04;103480;1281;59888;-77
2023/12/30 06:30:34;;;;;;;8.50;6.10;;;;;;;17.80;37.29;101103.79;103551;1281;61359;-77
2023/12/30 06:33:06;;;;;;;8.60;6.20;;;;;;;17.80;37.28;101101.65;103287;1281;61249;-77
2023/12/30 06:35:33;;;;;;;9.20;6.20;;;;;;;17.79;37.27;101102.03;103530;1282;73495;-77
2023/12/30 06:37:59;;;;;;;9.00;6.10;;;;;;;17.79;37.28;101105.26;103527;1283;74385;-77
2023/12/30 06:40:26;;;;;;;8.30;5.80;;;;;;;17.79;37.24;101111.11;103455;1280;61398;-77
2023/12/30 06:42:52;;;;;;;10.30;6.00;;;;;;;17.79;37.33;101113.98;103311;1281;61238;-77
2023/12/30 06:45:18;;;;;;;7.50;5.50;;;;;;;17.78;37.30;101115.96;103444;1282;61243;-77
2023/12/30 06:47:44;;;;;;;8.60;5.90;;;;;;;17.79;37.26;101117.91;103517;1282;61458;-77
2023/12/30 06:50:12;;;;;;;10.00;6.40;;;;;;;17.78;37.23;101122.75;103037;1284;61352;-77
2023/12/30 06:52:37;;;;;;;9.90;6.70;;;;;;;17.78;37.33;101130.58;102814;1285;61446;-77
2023/12/30 06:55:03;;;;;;;9.40;6.00;;;;;;;17.77;37.16;101127.23;103148;1284;61271;-77
2023/12/30 06:57:29;;;;;;;8.60;6.20;;;;;;;17.78;37.24;101127.58;102965;1285;61413;-77
2023/12/30 06:59:55;;;;;;;9.10;5.70;;;;;;;17.77;37.26;101130.62;103039;1285;62573;-77
2023/12/30 07:02:21;;;;;;;9.00;5.90;;;;;;;17.77;37.36;101133.30;102984;1285;61360;-77
2023/12/30 07:04:47;;;;;;;9.50;5.90;;;;;;;17.77;37.28;101133.99;103241;1283;61495;-77
2023/12/30 07:07:12;;;;;;;9.60;6.20;;;;;;;17.77;37.26;101131.52;103112;1284;72434;-77
2023/12/30 07:09:39;;;;;;;8.30;5.90;;;;;;;17.76;37.21;101136.36;102967;1285;61333;-77
2023/12/30 07:12:05;;;;;;;7.90;6.00;;;;;;;17.76;37.26;101135.99;103087;1283;61523;-77
2023/12/30 07:14:34;;;;;;;9.10;5.50;;;;;;;17.76;37.20;101134.06;103148;1284;61245;-77
2023/12/30 07:17:00;;;;;;;9.90;6.90;;;;;;;17.76;37.21;101135.14;103097;1284;72367;-77
2023/12/30 07:19:26;;;;;;;8.00;5.80;;;;;;;17.75;37.25;101136.09;103329;1285;62046;-77
2023/12/30 07:21:53;;;;;;;8.60;6.10;;;;;;;17.75;37.32;101137.33;103283;1282;61456;-77
2023/12/30 07:24:18;;;;;;;9.80;6.20;;;;;;;17.75;37.33;101139.11;103157;1282;59836;-77
2023/12/30 07:26:44;;;;;;;8.10;6.10;;;;;;;17.74;37.36;101134.31;103450;1284;61382;-77
2023/12/30 07:29:11;;;;;;;9.90;6.50;;;;;;;17.74;37.18;101133.45;103662;1282;61350;-76
2023/12/30 07:31:37;;;;;;;10.30;6.00;;;;;;;17.74;37.24;101134.32;103492;1282;60122;-77
2023/12/30 07:34:06;;;;;;;8.70;6.20;;;;;;;17.74;37.35;101138.26;103245;1282;61375;-77
2023/12/30 07:36:32;;;;;;;8.20;5.70;;;;;;;17.74;37.40;101145.94;103520;1282;72343;-77
2023/12/30 07:38:58;;;;;;;8.00;5.90;;;;;;;17.74;37.28;101150.55;103024;1282;594789;-77
2023/12/30 07:41:23;;;;;;;9.40;6.10;;;;;;;17.73;37.35;101147.75;103494;1282;60671;-77
2023/12/30 07:43:49;;;;;;;8.90;6.80;;;;;;;17.73;37.34;101148.66;103156;1282;61254;-77
2023/12/30 07:46:15;;;;;;;8.10;5.40;;;;;;;17.73;37.42;101149.02;103194;1283;61341;-77
2023/12/30 07:48:42;;;;;;;8.50;6.20;;;;;;;17.73;37.37;101155.41;103524;1281;61264;-77
2023/12/30 07:51:08;;;;;;;9.20;6.10;;;;;;;17.72;37.34;101158.63;103287;1281;74467;-77
2023/12/30 07:53:33;;;;;;;8.40;5.60;;;;;;;17.73;37.44;101159.15;103489;1280;61357;-76
2023/12/30 07:55:59;;;;;;;8.70;6.10;;;;;;;17.73;37.31;101159.87;103397;1281;61378;-77
2023/12/30 07:58:25;;;;;;;8.10;6.20;;;;;;;17.72;37.36;101160.98;103268;1281;61330;-77
2023/12/30 08:00:50;;;;;;;8.30;5.90;;;;;;;17.72;37.42;101163.13;103485;1281;59875;-77
2023/12/30 08:03:16;;;;;;;8.90;6.10;;;;;;;17.72;37.24;101165.61;103440;1283;75702;-77
2023/12/30 08:05:41;;;;;;;8.60;5.90;;;;;;;17.71;37.41;101165.45;103449;1280;62226;-77
2023/12/30 08:08:12;;;;;;;7.90;5.70;;;;;;;17.72;37.44;101166.14;103280;1280;61251;-77
2023/12/30 08:10:38;;;;;;;8.80;6.10;;;;;;;17.72;37.39;101171.33;103296;1282;72910;-77
2023/12/30 08:13:04;;;;;;;9.10;6.20;;;;;;;17.71;37.32;101169.73;103512;1280;61376;-77
2023/12/30 08:15:29;;;;;;;9.40;5.50;;;;;;;17.71;37.32;101166.53;103316;1281;60499;-77
2023/12/30 08:17:55;;;;;;;8.00;6.10;;;;;;;17.71;37.37;101168.86;103154;1282;61385;-77
2023/12/30 08:20:21;;;;;;;8.80;6.00;;;;;;;17.71;37.48;101169.92;103260;1282;60132;-76
2023/12/30 08:22:50;;;;;;;7.80;5.70;;;;;;;17.71;37.36;101175.80;103317;1282;61337;-77
2023/12/30 08:25:20;;;;;;;7.40;5.90;;;;;;;17.71;37.31;101178.65;103328;1281;61273;-77
2023/12/30 08:27:45;;;;;;;8.00;5.90;;;;;;;17.71;37.38;101180.27;103458;1281;61493;-77
2023/12/30 08:30:11;;;;;;;7.50;6.20;;;;;;;17.71;37.32;101174.73;103259;1282;61593;-77
2023/12/30 08:32:37;;;;;;;8.20;5.80;;;;;;;17.70;37.41;101170.14;103251;1281;62294;-77
2023/12/30 08:35:07;;;;;;;8.20;5.80;;;;;;;17.71;37.28;101174.58;103293;1282;61375;-77
2023/12/30 08:37:34;;;;;;;8.90;6.10;;;;;;;17.70;37.36;101175.64;103305;1281;61360;-77
2023/12/30 08:39:59;;;;;;;8.20;6.10;;;;;;;17.70;37.30;101169.25;103613;1280;72511;-77
2023/12/30 08:42:25;;;;;;;9.50;6.10;;;;;;;17.70;37.27;101172.29;103211;1282;61442;-77
2023/12/30 08:44:52;;;;;;;7.90;6.00;;;;;;;17.70;37.45;101165.16;103260;1281;60160;-77
2023/12/30 08:47:17;;;;;;;9.40;6.10;;;;;;;17.71;37.36;101165.13;103294;1282;61451;-77
2023/12/30 08:49:43;;;;;;;8.70;6.40;;;;;;;17.70;37.46;101168.89;103449;1281;59979;-77
2023/12/30 08:52:10;;;;;;;10.50;6.40;;;;;;;17.70;37.37;101168.19;103481;1282;61385;-77
2023/12/30 08:54:39;;;;;;;8.90;6.10;;;;;;;17.70;37.40;101162.53;103339;1281;61245;-77
2023/12/30 08:57:04;;;;;;;7.80;6.20;;;;;;;17.70;37.47;101158.75;103543;1281;60148;-77
2023/12/30 08:59:30;;;;;;;7.90;5.60;;;;;;;17.70;37.32;101153.95;103510;1281;61245;-76
2023/12/30 09:01:55;;;;;;;8.80;6.30;;;;;;;17.70;37.44;101153.40;103502;1285;61378;-76
2023/12/30 09:04:21;;;;;;;9.40;6.40;;;;;;;17.70;37.32;101145.94;103297;1281;60203;-76
2023/12/30 09:06:47;;;;;;;8.60;6.20;;;;;;;17.70;37.40;101147.54;103478;1282;61340;-76
2023/12/30 09:09:12;;;;;;;8.80;6.20;;;;;;;17.70;37.38;101134.20;103471;1281;61477;-76
2023/12/30 09:11:38;;;;;;;10.40;6.50;;;;;;;17.70;37.46;101134.52;103470;1282;59432;-76
2023/12/30 09:14:05;;;;;;;8.20;6.50;;;;;;;17.70;37.35;101123.86;103485;1280;61228;-76
2023/12/30 09:16:32;;;;;;;9.90;6.40;;;;;;;17.70;37.46;101120.85;103464;1281;61395;-76
2023/12/30 09:18:58;;;;;;;8.80;6.20;;;;;;;17.70;37.53;101114.80;103491;1280;61385;-76
2023/12/30 09:21:23;;;;;;;8.80;6.30;;;;;;;17.70;37.53;101103.23;103303;1281;61319;-76
2023/12/30 09:23:50;;;;;;;9.40;6.80;;;;;;;17.70;37.43;101100.91;103311;1281;61403;-76
2023/12/30 09:26:17;;;;;;;9.80;6.60;;;;;;;17.70;37.46;101091.67;103308;1281;59942;-76
2023/12/30 09:28:43;;;;;;;9.00;6.50;;;;;;;17.70;37.44;101091.48;103651;1281;61338;-76
2023/12/30 09:31:09;;;;;;;9.00;6.50;;;;;;;17.70;37.37;101090.77;103139;1281;61371;-76
2023/12/30 09:33:34;;;;;;;9.70;6.80;;;;;;;17.70;37.44;101088.99;103438;1281;61494;-76
2023/12/30 09:36:00;;;;;;;8.90;6.70;;;;;;;17.70;37.49;101089.71;103354;1281;61349;-76
2023/12/30 09:38:26;;;;;;;8.80;6.70;;;;;;;17.70;37.50;101088.29;103343;1281;61389;-76
2023/12/30 09:40:54;;;;;;;9.20;6.70;;;;;;;17.70;37.49;101089.70;103469;1280;61249;-76
2023/12/30 09:43:26;;;;;;;10.80;6.50;;;;;;;17.70;37.42;101088.09;103272;1280;72457;-76
2023/12/30 09:45:52;;;;;;;9.60;6.80;;;;;;;17.70;37.43;101083.30;103526;1282;74300;-76
2023/12/30 09:48:20;;;;;;;10.10;7.30;;;;;;;17.70;37.47;101078.67;103451;1282;62194;-76
2023/12/30 09:50:50;;;;;;;10.70;7.30;;;;;;;17.70;37.51;101078.84;103481;1281;61387;-76
2023/12/30 09:53:16;;;;;;;10.90;6.70;;;;;;;17.70;37.44;101079.36;103216;1282;72519;-76
2023/12/30 09:55:46;;;;;;;8.40;6.80;;;;;;;17.70;37.46;101079.02;103424;1281;74445;-76
2023/12/30 09:58:13;;;;;;;9.60;6.90;;;;;;;17.69;37.51;101081.19;103326;1281;60031;-76
2023/12/30 10:00:40;;;;;;;8.60;6.70;;;;;;;17.70;37.42;101084.01;103117;1280;61498;-76
2023/12/30 10:03:06;;;;;;;9.40;6.90;;;;;;;17.70;37.43;101081.88;103266;1286;72321;-76
2023/12/30 10:05:32;;;;;;;9.20;6.80;;;;;;;17.70;37.44;101078.14;103345;1282;62040;-76
2023/12/30 10:07:58;;;;;;;9.30;6.90;;;;;;;17.70;37.44;101076.19;103415;1282;59944;-76
2023/12/30 10:10:43;;;;;;;8.60;6.40;;;;;;;17.70;37.45;101076.16;103412;1281;61398;-76
2023/12/30 10:13:09;;;;;;;9.00;6.60;;;;;;;17.69;37.44;101074.95;103378;1281;73220;-76
2023/12/30 10:15:35;;;;;;;9.60;6.90;;;;;;;17.70;37.40;101078.31;103160;1280;74324;-76
2023/12/30 10:18:02;;;;;;;9.50;7.30;;;;;;;17.70;37.52;101079.56;103246;1281;61369;-76
2023/12/30 10:20:27;;;;;;;10.00;6.90;;;;;;;17.69;37.40;101076.38;103473;1284;61144;-76
2023/12/30 10:22:53;;;;;;;9.80;6.90;;;;;;;17.70;37.46;101076.55;103391;1284;61343;-76
2023/12/30 10:25:19;;;;;;;9.90;7.00;;;;;;;17.70;37.44;101077.80;103122;1282;61280;-76
2023/12/30 10:27:48;;;;;;;11.30;7.20;;;;;;;17.70;37.40;101076.88;103248;1281;59994;-76
2023/12/30 10:30:19;;;;;;;10.80;6.80;;;;;;;17.69;37.44;101071.75;103409;1282;61259;-76
2023/12/30 10:32:46;;;;;;;9.90;7.10;;;;;;;17.69;37.30;101068.36;103137;1282;73440;-76
2023/12/30 10:35:13;;;;;;;10.40;7.30;;;;;;;17.69;37.29;101069.27;103353;1282;74448;-76
2023/12/30 10:37:40;;;;;;;10.90;7.30;;;;;;;17.69;37.30;101068.20;103375;1282;61305;-76
2023/12/30 10:40:07;;;;;;;10.60;7.70;;;;;;;17.69;37.41;101063.20;103257;1281;61375;-76
2023/12/30 10:42:33;;;;;;;12.60;7.50;;;;;;;17.69;37.34;101063.20;102992;1289;72587;-76
2023/12/30 10:44:59;;;;;;;10.50;7.80;;;;;;;17.70;37.30;101059.80;103317;1282;61273;-76
2023/12/30 10:47:24;;;;;;;11.30;7.60;;;;;;;17.69;37.40;101054.14;103302;1280;61315;-76
2023/12/30 10:49:52;;;;;;;9.40;7.20;;;;;;;17.70;37.29;101055.90;103385;1282;61393;-76
2023/12/30 10:52:21;;;;;;;11.80;7.40;;;;;;;17.70;37.33;101059.45;103316;1282;62304;-76
2023/12/30 10:54:47;;;;;;;10.10;7.10;;;;;;;17.69;37.39;101057.15;103238;1281;74560;-76
2023/12/30 10:57:14;;;;;;;11.30;7.90;;;;;;;17.69;37.37;101055.02;103416;1282;61363;-76
2023/12/30 10:59:40;;;;;;;11.20;7.60;;;;;;;17.69;37.32;101050.04;103262;1281;61357;-76
2023/12/30 11:02:06;;;;;;;10.60;7.50;;;;;;;17.69;37.33;101050.56;103085;1287;60087;-76
2023/12/30 11:04:31;;;;;;;10.40;7.40;;;;;;;17.69;37.38;101051.46;103192;1281;61253;-76
2023/12/30 11:06:57;;;;;;;11.10;7.50;;;;;;;17.70;37.34;101058.56;103257;1282;61481;-76
2023/12/30 11:09:29;;;;;;;10.70;7.70;;;;;;;17.70;37.23;101053.06;103391;1281;61285;-76